Time;durP1;ratioP1;P1;durP2;ratioP2;P2;SDS_P1;SDS_P2;PMS_P1;PMS_P2;Temp;Humidity;BMP_temperature;BMP_pressure;BME280_temperature;BME280_humidity;BME280_pressure;Samples;Min_cycle;Max_cycle;Signal;HPM_P1;HPM_P2
2023/06/18 00:00:07;;;;;;;17.13;12.35;;;20.40;73.10;;;;;;5077958;28;20056;-71
2023/06/18 00:02:33;;;;;;;18.38;13.30;;;20.40;72.30;;;;;;5077661;28;20039;-71
2023/06/18 00:04:59;;;;;;;20.10;13.43;;;20.40;73.00;;;;;;5077316;28;20024;-72
2023/06/18 00:07:25;;;;;;;18.23;12.45;;;20.30;72.60;;;;;;5077102;28;20096;-72
2023/06/18 00:09:52;;;;;;;18.15;13.45;;;20.40;73.30;;;;;;5077395;28;20138;-72
2023/06/18 00:12:18;;;;;;;16.88;12.77;;;20.40;73.70;;;;;;5077157;28;20021;-72
2023/06/18 00:14:44;;;;;;;18.70;12.52;;;20.30;73.40;;;;;;5077401;28;20430;-72
2023/06/18 00:17:10;;;;;;;20.67;13.13;;;20.30;73.60;;;;;;5077059;28;20099;-72
2023/06/18 00:19:36;;;;;;;21.35;14.38;;;20.20;73.60;;;;;;5077317;28;20449;-72
2023/06/18 00:22:02;;;;;;;20.48;14.15;;;20.20;74.40;;;;;;5077526;28;20107;-72
2023/06/18 00:24:28;;;;;;;18.88;12.23;;;20.20;74.40;;;;;;5076848;28;20076;-72
2023/06/18 00:26:54;;;;;;;20.45;14.40;;;20.20;73.90;;;;;;5076951;28;20039;-71
2023/06/18 00:29:21;;;;;;;15.90;11.20;;;20.20;74.00;;;;;;5077099;28;20067;-72
2023/06/18 00:31:47;;;;;;;15.13;11.27;;;20.20;73.50;;;;;;5076760;28;20525;-71
2023/06/18 00:34:14;;;;;;;19.10;12.77;;;20.10;73.50;;;;;;5077052;28;20100;-72
2023/06/18 00:36:43;;;;;;;17.63;12.18;;;20.10;73.40;;;;;;5058942;28;20112;-71
2023/06/18 00:39:12;;;;;;;16.92;11.80;;;20.10;73.70;;;;;;5076610;28;20040;-72
2023/06/18 00:41:38;;;;;;;15.45;11.40;;;20.10;73.10;;;;;;5076840;28;20029;-72
2023/06/18 00:44:08;;;;;;;14.77;10.88;;;20.00;72.90;;;;;;5076523;28;20103;-72
2023/06/18 00:46:36;;;;;;;16.05;11.48;;;20.10;73.10;;;;;;5076355;28;20032;-72
2023/06/18 00:49:02;;;;;;;14.27;10.05;;;20.00;72.80;;;;;;5076322;28;20107;-72
2023/06/18 00:51:29;;;;;;;14.40;10.57;;;20.00;72.70;;;;;;5058909;28;20020;-72
2023/06/18 00:53:58;;;;;;;14.10;10.30;;;20.00;72.60;;;;;;5077165;28;20064;-72
2023/06/18 00:56:25;;;;;;;12.27;8.63;;;20.10;72.30;;;;;;5058595;28;20032;-72
2023/06/18 00:58:52;;;;;;;13.23;8.77;;;20.00;72.10;;;;;;5076185;28;20032;-72
2023/06/18 01:01:19;;;;;;;14.07;9.43;;;20.10;72.20;;;;;;5076206;28;20021;-72
2023/06/18 01:03:47;;;;;;;12.27;8.55;;;20.00;72.20;;;;;;5076115;28;20472;-72
2023/06/18 01:06:17;;;;;;;16.27;11.15;;;20.00;72.20;;;;;;5076247;28;20025;-72
2023/06/18 01:08:48;;;;;;;14.73;9.98;;;20.00;72.20;;;;;;5075897;28;20393;-72
2023/06/18 01:11:19;;;;;;;12.48;8.85;;;20.00;72.20;;;;;;5075998;28;20039;-72
2023/06/18 01:13:46;;;;;;;12.90;9.23;;;20.00;72.00;;;;;;5076291;28;20055;-72
2023/06/18 01:16:13;;;;;;;12.73;8.70;;;20.00;72.00;;;;;;5076117;28;20074;-72
2023/06/18 01:18:45;;;;;;;11.50;8.25;;;20.00;72.00;;;;;;5075359;28;20082;-71
2023/06/18 01:21:15;;;;;;;11.40;7.90;;;20.00;71.90;;;;;;5076101;28;20046;-72
2023/06/18 01:24:08;;;;;;;11.60;7.97;;;20.00;71.90;;;;;;5075566;28;20110;-72
2023/06/18 01:26:35;;;;;;;12.55;8.80;;;20.00;72.00;;;;;;5076214;28;20149;-72
2023/06/18 01:29:02;;;;;;;12.20;8.65;;;20.00;71.90;;;;;;5075624;28;20024;-72
2023/06/18 01:31:39;;;;;;;13.90;9.27;;;19.90;71.90;;;;;;5075536;28;20456;-72
2023/06/18 01:34:06;;;;;;;13.07;9.20;;;19.90;71.80;;;;;;5075954;28;20094;-71
2023/06/18 01:37:10;;;;;;;10.35;7.60;;;19.90;71.90;;;;;;5075402;28;20025;-72
2023/06/18 01:39:50;;;;;;;10.75;7.97;;;19.90;72.00;;;;;;5074884;28;20036;-71
2023/06/18 01:42:18;;;;;;;12.02;7.97;;;19.90;71.70;;;;;;5075984;28;20025;-72
2023/06/18 01:45:03;;;;;;;13.63;10.18;;;19.90;71.80;;;;;;5075407;28;20043;-71
2023/06/18 01:47:29;;;;;;;15.82;10.68;;;19.90;71.80;;;;;;5075359;28;20028;-71
2023/06/18 01:49:58;;;;;;;15.10;10.18;;;19.80;72.10;;;;;;5075475;28;20032;-72
2023/06/18 01:52:25;;;;;;;12.10;9.30;;;19.80;72.20;;;;;;5075263;28;20035;-72
2023/06/18 01:54:53;;;;;;;13.55;10.55;;;19.80;72.20;;;;;;5075264;28;20039;-72
2023/06/18 01:57:20;;;;;;;14.23;9.30;;;19.70;72.00;;;;;;5075223;28;20028;-72
2023/06/18 01:59:46;;;;;;;15.35;11.00;;;19.70;71.80;;;;;;5057584;28;20032;-72
2023/06/18 02:02:12;;;;;;;14.90;10.13;;;19.70;71.90;;;;;;5057565;28;20353;-72
2023/06/18 02:04:43;;;;;;;16.45;11.70;;;19.60;72.20;;;;;;5075161;28;20082;-72
2023/06/18 02:07:11;;;;;;;14.82;10.25;;;19.60;72.20;;;;;;5075377;28;20029;-71
2023/06/18 02:09:37;;;;;;;13.73;9.48;;;19.60;72.30;;;;;;5075581;28;20028;-72
2023/06/18 02:12:03;;;;;;;14.65;9.82;;;19.60;72.40;;;;;;5075646;28;20032;-72
2023/06/18 02:14:30;;;;;;;11.48;8.30;;;19.60;72.10;;;;;;5075552;28;20383;-72
2023/06/18 02:16:57;;;;;;;12.30;8.45;;;19.60;72.10;;;;;;5074913;28;20354;-72
2023/06/18 02:19:23;;;;;;;14.95;8.35;;;19.60;72.00;;;;;;5074913;28;20107;-72
2023/06/18 02:21:49;;;;;;;12.20;8.93;;;19.60;72.10;;;;;;5075027;28;20032;-72
2023/06/18 02:24:15;;;;;;;14.18;8.70;;;19.60;72.10;;;;;;5074841;28;20129;-72
2023/06/18 02:26:42;;;;;;;13.27;9.07;;;19.60;72.00;;;;;;5075115;28;20099;-72
2023/06/18 02:29:08;;;;;;;11.05;8.05;;;19.60;72.00;;;;;;5074850;28;20425;-72
2023/06/18 02:31:34;;;;;;;10.52;7.65;;;19.60;72.00;;;;;;5079150;28;20243;-72
2023/06/18 02:34:00;;;;;;;10.73;7.72;;;19.60;71.90;;;;;;5078984;28;20028;-72
2023/06/18 02:36:27;;;;;;;11.88;8.20;;;19.60;71.90;;;;;;5078916;28;20070;-72
2023/06/18 02:38:53;;;;;;;12.30;8.45;;;19.50;71.90;;;;;;5078930;28;20492;-71
2023/06/18 02:41:19;;;;;;;14.63;10.73;;;19.50;72.20;;;;;;5079201;28;20032;-71
2023/06/18 02:43:49;;;;;;;13.73;10.10;;;19.50;72.50;;;;;;5079380;28;20032;-71
2023/06/18 02:46:16;;;;;;;12.05;8.50;;;19.50;72.40;;;;;;5078646;28;20045;-71
2023/06/18 02:48:42;;;;;;;11.52;8.07;;;19.50;72.20;;;;;;5078982;28;20031;-71
2023/06/18 02:51:08;;;;;;;11.15;8.35;;;19.40;72.00;;;;;;5078707;28;20469;-71
2023/06/18 02:53:34;;;;;;;11.57;8.07;;;19.50;71.90;;;;;;5078639;28;20020;-71
2023/06/18 02:56:01;;;;;;;14.02;8.75;;;19.40;71.80;;;;;;5078861;28;20028;-71
2023/06/18 02:58:30;;;;;;;10.65;8.18;;;19.40;71.60;;;;;;5078834;28;20130;-71
2023/06/18 03:00:57;;;;;;;11.48;7.45;;;19.50;71.20;;;;;;5079033;28;20154;-71
2023/06/18 03:03:23;;;;;;;13.35;9.40;;;19.50;70.90;;;;;;5078741;28;20117;-71
2023/06/18 03:05:50;;;;;;;12.02;8.43;;;19.40;70.50;;;;;;5078341;28;20493;-72
2023/06/18 03:08:17;;;;;;;11.40;7.55;;;19.40;70.20;;;;;;5078223;28;20077;-72
2023/06/18 03:10:43;;;;;;;12.80;8.43;;;19.40;69.90;;;;;;5078360;28;20031;-72
2023/06/18 03:13:09;;;;;;;13.48;8.90;;;19.40;69.70;;;;;;5078813;28;20029;-72
2023/06/18 03:15:35;;;;;;;11.32;7.45;;;19.40;69.50;;;;;;5078102;28;20023;-72
2023/06/18 03:18:02;;;;;;;11.52;7.72;;;19.40;69.50;;;;;;5078159;28;20100;-72
2023/06/18 03:20:28;;;;;;;10.77;7.53;;;19.40;69.40;;;;;;5078132;28;20112;-72
2023/06/18 03:22:54;;;;;;;9.88;7.05;;;19.40;69.30;;;;;;5078161;28;20049;-71
2023/06/18 03:25:21;;;;;;;11.88;6.68;;;19.40;69.30;;;;;;5078226;28;20017;-71
2023/06/18 03:27:48;;;;;;;9.38;6.63;;;19.40;69.30;;;;;;5078512;28;20024;-71
2023/06/18 03:30:14;;;;;;;11.90;7.25;;;19.40;69.30;;;;;;5077932;28;20446;-71
2023/06/18 03:32:40;;;;;;;9.70;7.13;;;19.40;69.20;;;;;;5078208;28;20124;-72
2023/06/18 03:35:07;;;;;;;10.93;7.85;;;19.40;69.10;;;;;;5077866;28;20021;-71
2023/06/18 03:37:33;;;;;;;11.98;8.25;;;19.40;68.80;;;;;;5078037;28;20079;-72
2023/06/18 03:39:59;;;;;;;14.43;8.65;;;19.40;68.60;;;;;;5077861;28;20078;-72
2023/06/18 03:42:26;;;;;;;9.70;7.13;;;19.40;68.40;;;;;;5077334;28;20103;-71
2023/06/18 03:44:52;;;;;;;11.13;7.63;;;19.40;68.40;;;;;;5077720;28;20039;-72
2023/06/18 03:47:18;;;;;;;10.65;7.60;;;19.40;68.30;;;;;;5060055;28;20071;-72
2023/06/18 03:49:44;;;;;;;10.25;7.00;;;19.50;68.20;;;;;;5078084;28;20044;-72
2023/06/18 03:52:10;;;;;;;11.80;7.70;;;19.50;68.10;;;;;;5077590;28;20029;-71
2023/06/18 03:54:38;;;;;;;11.15;8.10;;;19.60;67.90;;;;;;5077553;28;20048;-72
2023/06/18 03:57:04;;;;;;;12.85;7.93;;;19.60;67.70;;;;;;5077352;28;20027;-72
2023/06/18 03:59:31;;;;;;;13.18;8.98;;;19.60;67.50;;;;;;5077775;28;20028;-72
2023/06/18 04:01:57;;;;;;;13.40;8.23;;;19.70;67.40;;;;;;5077373;28;20028;-71
2023/06/18 04:04:23;;;;;;;10.27;7.10;;;19.70;67.40;;;;;;5077640;28;20043;-72
2023/06/18 04:06:49;;;;;;;10.85;6.78;;;19.80;67.30;;;;;;5077361;28;20448;-72
2023/06/18 04:09:15;;;;;;;12.90;8.30;;;19.90;67.20;;;;;;5077693;28;20032;-72
2023/06/18 04:11:42;;;;;;;11.07;7.93;;;19.90;67.00;;;;;;5077235;28;20025;-71
2023/06/18 04:14:09;;;;;;;8.90;6.60;;;20.00;66.80;;;;;;5077389;28;20071;-72
2023/06/18 04:16:35;;;;;;;11.23;6.53;;;20.00;66.30;;;;;;5077342;28;20475;-73
2023/06/18 04:19:01;;;;;;;13.10;6.57;;;20.20;66.10;;;;;;5077405;28;20052;-72
2023/06/18 04:21:27;;;;;;;9.20;6.13;;;20.30;65.90;;;;;;5077870;28;20342;-70
2023/06/18 04:23:54;;;;;;;11.15;6.55;;;20.40;65.60;;;;;;5079480;28;20044;-71
2023/06/18 04:26:21;;;;;;;12.38;7.80;;;20.50;65.30;;;;;;5097411;28;20036;-71
2023/06/18 04:28:47;;;;;;;11.55;6.00;;;20.60;64.90;;;;;;5079221;28;20023;-71
2023/06/18 04:31:13;;;;;;;11.45;7.25;;;20.60;64.50;;;;;;5097616;28;20024;-71
2023/06/18 04:33:39;;;;;;;10.38;6.80;;;20.70;64.10;;;;;;5097575;28;20448;-71
2023/06/18 04:36:06;;;;;;;12.10;7.28;;;20.90;63.80;;;;;;5097001;28;20380;-71
2023/06/18 04:38:32;;;;;;;9.93;6.88;;;20.90;63.40;;;;;;5096892;28;20121;-71
2023/06/18 04:40:58;;;;;;;9.23;6.53;;;20.90;63.00;;;;;;5097469;28;20024;-72
2023/06/18 04:43:24;;;;;;;10.90;6.13;;;21.00;62.90;;;;;;5096904;28;20032;-71
2023/06/18 04:45:51;;;;;;;9.38;6.13;;;21.10;62.80;;;;;;5097015;28;20043;-72
2023/06/18 04:48:18;;;;;;;8.23;5.65;;;21.20;62.90;;;;;;5096617;28;20063;-71
2023/06/18 04:50:44;;;;;;;9.43;5.90;;;21.30;62.80;;;;;;5096769;28;20024;-71
2023/06/18 04:53:10;;;;;;;10.27;6.10;;;21.40;62.80;;;;;;5095878;28;20492;-71
2023/06/18 04:55:37;;;;;;;9.77;5.47;;;21.60;62.70;;;;;;5096726;28;20056;-70
2023/06/18 04:58:04;;;;;;;10.23;6.78;;;21.80;62.60;;;;;;5096551;28;20449;-71
2023/06/18 05:00:33;;;;;;;9.88;6.63;;;22.00;62.60;;;;;;5096740;28;20020;-71
2023/06/18 05:03:00;;;;;;;10.73;7.18;;;22.40;62.10;;;;;;5096771;28;20020;-72
2023/06/18 05:05:26;;;;;;;11.02;7.10;;;22.80;61.20;;;;;;5096612;28;20054;-71
2023/06/18 05:07:53;;;;;;;10.20;7.38;;;23.10;60.60;;;;;;5096372;28;20441;-71
2023/06/18 05:10:19;;;;;;;8.70;6.03;;;23.40;59.60;;;;;;5096522;28;20464;-70
2023/06/18 05:12:45;;;;;;;9.77;6.00;;;23.70;59.10;;;;;;5095303;28;20372;-71
2023/06/18 05:15:11;;;;;;;10.50;6.30;;;24.10;58.80;;;;;;5096789;28;20471;-71
2023/06/18 05:17:37;;;;;;;9.45;6.43;;;24.60;58.10;;;;;;5096408;28;20055;-70
2023/06/18 05:20:04;;;;;;;10.73;7.10;;;25.20;56.80;;;;;;5096405;28;20456;-71
2023/06/18 05:22:30;;;;;;;7.78;5.82;;;25.90;55.60;;;;;;5095632;28;20031;-70
2023/06/18 05:24:59;;;;;;;8.82;6.43;;;26.60;54.60;;;;;;5075739;28;20063;-70
2023/06/18 05:27:28;;;;;;;9.48;6.28;;;27.30;53.40;;;;;;5075891;28;20087;-70
2023/06/18 05:29:54;;;;;;;9.70;6.30;;;27.90;52.40;;;;;;5075919;28;20099;-70
2023/06/18 05:32:21;;;;;;;10.90;7.70;;;28.50;50.60;;;;;;5075846;28;20024;-70
2023/06/18 05:34:47;;;;;;;9.48;7.00;;;28.90;50.10;;;;;;5075843;28;20074;-70
2023/06/18 05:37:13;;;;;;;9.73;6.78;;;29.10;48.70;;;;;;5075606;28;20025;-70
2023/06/18 05:39:39;;;;;;;8.98;6.20;;;29.30;48.60;;;;;;5076032;28;20393;-70
2023/06/18 05:42:07;;;;;;;11.25;7.55;;;29.50;48.50;;;;;;5075415;28;20048;-71
2023/06/18 05:44:33;;;;;;;11.20;7.00;;;29.50;47.70;;;;;;5075964;28;20519;-70
2023/06/18 05:46:59;;;;;;;11.15;7.88;;;29.80;47.50;;;;;;5075339;28;20472;-72
2023/06/18 05:49:28;;;;;;;9.73;6.95;;;30.20;46.80;;;;;;5075312;28;20029;-69
2023/06/18 05:51:54;;;;;;;9.00;6.50;;;30.80;46.30;;;;;;5075263;28;20024;-71
2023/06/18 05:54:20;;;;;;;9.85;7.13;;;31.50;45.70;;;;;;5075784;28;20021;-71
2023/06/18 05:56:46;;;;;;;12.10;7.38;;;32.20;44.30;;;;;;5075250;28;20029;-70
2023/06/18 05:59:12;;;;;;;9.82;7.53;;;32.80;43.20;;;;;;5075481;28;20036;-70
2023/06/18 06:01:38;;;;;;;9.80;7.40;;;33.40;41.90;;;;;;5075199;28;20039;-70
2023/06/18 06:04:04;;;;;;;11.45;7.40;;;33.70;41.00;;;;;;5074984;28;20032;-70
2023/06/18 06:06:30;;;;;;;11.15;6.75;;;33.90;40.20;;;;;;5075025;28;20025;-70
2023/06/18 06:08:56;;;;;;;10.55;7.45;;;34.20;40.00;;;;;;5074925;28;20115;-71
2023/06/18 06:11:22;;;;;;;12.15;7.88;;;34.50;39.70;;;;;;5057397;28;20116;-71
2023/06/18 06:13:49;;;;;;;10.00;6.80;;;34.60;37.80;;;;;;5074970;28;20024;-70
2023/06/18 06:16:15;;;;;;;9.98;7.22;;;34.60;39.00;;;;;;5074920;28;20141;-70
2023/06/18 06:18:41;;;;;;;11.73;7.22;;;34.70;38.90;;;;;;5074984;28;20104;-71
2023/06/18 06:21:07;;;;;;;9.20;6.63;;;34.90;38.30;;;;;;5075187;28;20211;-71
2023/06/18 06:23:34;;;;;;;9.25;6.65;;;35.10;38.30;;;;;;5074739;28;20048;-71
2023/06/18 06:26:01;;;;;;;8.63;6.45;;;35.30;37.70;;;;;;5074773;28;20044;-71
2023/06/18 06:28:27;;;;;;;10.55;7.30;;;35.70;37.40;;;;;;5075337;28;20029;-71
2023/06/18 06:30:53;;;;;;;8.10;6.32;;;36.10;36.70;;;;;;5075339;28;20028;-70
2023/06/18 06:33:19;;;;;;;11.57;7.00;;;36.40;36.00;;;;;;5075131;28;20480;-71
2023/06/18 06:35:46;;;;;;;8.95;6.65;;;36.60;35.50;;;;;;5075047;28;20020;-70
2023/06/18 06:38:12;;;;;;;11.80;6.47;;;36.30;35.80;;;;;;5074720;28;20028;-70
2023/06/18 06:40:38;;;;;;;10.43;6.75;;;35.70;36.40;;;;;;5074790;28;20028;-71
2023/06/18 06:43:05;;;;;;;8.35;6.05;;;34.70;37.60;;;;;;5074730;28;20362;-70
2023/06/18 06:45:31;;;;;;;7.18;5.45;;;34.00;38.60;;;;;;5056961;28;20111;-70
2023/06/18 06:47:58;;;;;;;9.32;7.05;;;33.30;40.00;;;;;;5074651;28;20055;-71
2023/06/18 06:50:24;;;;;;;9.95;7.70;;;32.50;41.60;;;;;;5074630;28;20035;-71
2023/06/18 06:52:50;;;;;;;12.30;9.30;;;32.00;42.90;;;;;;5074889;28;20017;-71
2023/06/18 06:55:17;;;;;;;10.70;6.30;;;31.30;44.90;;;;;;5074638;28;20082;-70
2023/06/18 06:57:43;;;;;;;10.45;7.72;;;30.70;45.50;;;;;;5074767;28;20021;-70
2023/06/18 07:00:10;;;;;;;9.25;6.40;;;30.30;46.60;;;;;;5074392;28;20449;-71
2023/06/18 07:02:36;;;;;;;9.93;7.18;;;30.00;47.40;;;;;;5074441;28;20162;-71
2023/06/18 07:05:04;;;;;;;9.40;6.03;;;29.90;48.20;;;;;;5074493;28;20446;-71
2023/06/18 07:07:30;;;;;;;11.95;8.60;;;29.90;48.60;;;;;;5074298;28;20426;-71
2023/06/18 07:09:56;;;;;;;12.88;8.57;;;29.90;49.10;;;;;;5074352;28;20032;-71
2023/06/18 07:12:22;;;;;;;9.57;7.03;;;29.60;49.40;;;;;;5074420;28;20081;-70
2023/06/18 07:14:47;;;;;;;9.10;6.80;;;29.30;50.10;;;;;;5074352;28;20035;-71
2023/06/18 07:17:14;;;;;;;9.20;7.00;;;29.20;50.90;;;;;;5077428;28;20048;-71
2023/06/18 07:19:40;;;;;;;8.77;5.95;;;29.20;51.10;;;;;;5060395;28;20033;-71
2023/06/18 07:22:06;;;;;;;9.15;5.90;;;29.20;51.10;;;;;;5078013;28;20082;-70
2023/06/18 07:24:32;;;;;;;9.15;6.63;;;29.10;51.20;;;;;;5077974;28;20056;-71
2023/06/18 07:27:03;;;;;;;7.60;5.60;;;29.00;51.60;;;;;;5077908;28;20025;-73
2023/06/18 07:29:30;;;;;;;7.60;5.82;;;29.00;51.30;;;;;;5078311;28;20054;-73
2023/06/18 07:31:56;;;;;;;8.68;6.20;;;28.90;51.70;;;;;;5077897;28;20031;-73
2023/06/18 07:34:22;;;;;;;9.68;6.75;;;28.70;51.90;;;;;;5077203;28;20029;-71
2023/06/18 07:36:49;;;;;;;10.02;6.28;;;28.50;52.30;;;;;;5077404;28;20147;-71
2023/06/18 07:39:16;;;;;;;7.88;5.53;;;28.40;52.60;;;;;;5077418;28;20033;-74
2023/06/18 07:41:43;;;;;;;9.45;6.47;;;28.40;52.80;;;;;;5077296;28;20028;-72
2023/06/18 07:44:09;;;;;;;8.95;5.55;;;28.40;52.90;;;;;;5077497;28;20024;-72
2023/06/18 07:46:35;;;;;;;9.27;6.35;;;28.50;52.80;;;;;;5077473;28;20036;-73
2023/06/18 07:49:00;;;;;;;7.93;5.03;;;28.50;52.60;;;;;;5076934;28;20021;-73
2023/06/18 07:51:26;;;;;;;6.30;4.93;;;28.60;52.50;;;;;;5077260;28;20090;-74
2023/06/18 07:53:52;;;;;;;10.18;6.32;;;28.70;52.30;;;;;;5077142;28;20016;-74
2023/06/18 07:56:18;;;;;;;8.85;5.90;;;28.70;52.30;;;;;;5077105;28;20024;-73
2023/06/18 07:58:44;;;;;;;7.45;5.75;;;28.80;52.20;;;;;;5077200;28;20054;-74
2023/06/18 08:01:10;;;;;;;9.15;5.82;;;28.80;52.20;;;;;;5077042;28;20052;-75
2023/06/18 08:03:36;;;;;;;8.90;5.95;;;28.70;52.10;;;;;;5076823;28;20107;-75
2023/06/18 08:06:02;;;;;;;10.02;6.22;;;28.70;51.90;;;;;;5076936;28;20415;-73
2023/06/18 08:08:28;;;;;;;9.02;6.32;;;28.60;52.10;;;;;;5076837;28;20094;-73
2023/06/18 08:10:54;;;;;;;8.70;5.72;;;28.70;52.30;;;;;;5076796;28;20021;-71
2023/06/18 08:13:20;;;;;;;8.85;6.10;;;28.80;52.30;;;;;;5076874;28;20434;-73
2023/06/18 08:15:46;;;;;;;9.48;6.38;;;28.90;51.80;;;;;;5076696;28;20366;-71
2023/06/18 08:18:11;;;;;;;8.10;5.70;;;28.90;51.20;;;;;;5076580;28;20024;-72
2023/06/18 08:20:37;;;;;;;8.00;6.15;;;28.90;51.40;;;;;;5076615;28;20442;-71
2023/06/18 08:23:03;;;;;;;7.95;5.55;;;29.00;51.30;;;;;;5076413;28;20372;-71
2023/06/18 08:25:29;;;;;;;10.20;7.38;;;29.10;51.10;;;;;;5076570;28;20076;-72
2023/06/18 08:27:56;;;;;;;8.50;6.18;;;29.10;50.40;;;;;;5074969;28;20039;-71
2023/06/18 08:30:22;;;;;;;6.80;4.93;;;28.90;50.30;;;;;;5076411;28;20031;-69
2023/06/18 08:32:48;;;;;;;7.60;5.35;;;28.80;50.60;;;;;;5075687;28;20017;-69
2023/06/18 08:35:14;;;;;;;8.45;5.80;;;28.90;50.70;;;;;;5076399;28;20039;-71
2023/06/18 08:37:40;;;;;;;8.45;5.50;;;29.00;50.50;;;;;;5075837;28;20033;-71
2023/06/18 08:40:08;;;;;;;9.77;6.70;;;29.10;50.30;;;;;;5076519;28;20123;-72
2023/06/18 08:42:34;;;;;;;9.38;6.57;;;29.20;50.60;;;;;;5075718;28;20023;-72
2023/06/18 08:45:00;;;;;;;10.77;6.63;;;29.30;50.30;;;;;;5076010;28;20032;-68
2023/06/18 08:47:28;;;;;;;9.55;7.25;;;29.30;50.00;;;;;;5076024;28;20036;-71
2023/06/18 08:49:57;;;;;;;8.25;6.05;;;29.40;50.10;;;;;;5076427;28;20024;-68
2023/06/18 08:52:25;;;;;;;9.45;7.53;;;29.50;49.70;;;;;;5076314;28;20016;-73
2023/06/18 08:54:56;;;;;;;8.55;6.40;;;29.40;49.30;;;;;;5076241;28;20021;-70
2023/06/18 08:57:52;;;;;;;8.57;5.75;;;29.50;49.30;;;;;;5076154;28;20029;-66
2023/06/18 09:00:19;;;;;;;8.43;5.90;;;29.50;49.40;;;;;;5076309;28;20021;-67
2023/06/18 09:02:46;;;;;;;12.65;7.95;;;29.50;49.30;;;;;;5076010;28;20416;-72
2023/06/18 09:05:13;;;;;;;10.32;7.32;;;29.50;49.00;;;;;;5075853;28;20024;-69
2023/06/18 09:07:39;;;;;;;10.02;7.03;;;29.40;49.30;;;;;;5076422;28;20032;-68
2023/06/18 09:10:06;;;;;;;7.32;5.75;;;29.40;49.40;;;;;;5075794;28;20032;-68
2023/06/18 09:12:32;;;;;;;10.48;6.18;;;29.40;49.60;;;;;;5058905;28;20021;-67
2023/06/18 09:14:58;;;;;;;6.75;4.97;;;29.40;49.10;;;;;;5075829;28;20080;-67
2023/06/18 09:17:24;;;;;;;7.65;5.20;;;29.50;48.90;;;;;;5075689;28;20437;-68
2023/06/18 09:19:52;;;;;;;7.03;4.97;;;29.50;49.00;;;;;;5075935;28;20033;-69
2023/06/18 09:22:21;;;;;;;8.23;6.15;;;29.70;48.80;;;;;;5075811;28;20024;-69
2023/06/18 09:24:59;;;;;;;8.60;6.03;;;29.70;48.30;;;;;;5075332;28;20485;-69
2023/06/18 09:27:32;;;;;;;6.90;5.05;;;29.70;48.10;;;;;;5058019;28;20453;-69
2023/06/18 09:29:58;;;;;;;;;;;29.70;48.20;;;;;;5076191;28;20487;-68
2023/06/18 09:32:24;;;;;;;8.90;6.10;;;29.60;47.40;;;;;;5075838;28;19912;-68
2023/06/18 09:34:50;;;;;;;8.48;6.43;;;29.50;47.80;;;;;;5075955;28;20139;-70
2023/06/18 09:37:16;;;;;;;12.57;8.40;;;29.60;47.80;;;;;;5075412;28;20107;-68
2023/06/18 09:39:44;;;;;;;9.88;7.38;;;29.50;47.10;;;;;;5075048;28;20024;-68
2023/06/18 09:42:11;;;;;;;9.65;6.47;;;29.50;47.40;;;;;;5057764;28;20326;-69
2023/06/18 09:44:37;;;;;;;7.68;5.60;;;29.50;47.50;;;;;;5075639;28;20035;-68
2023/06/18 09:47:11;;;;;;;10.15;7.15;;;29.60;47.60;;;;;;5075313;28;20048;-69
2023/06/18 09:49:39;;;;;;;8.63;6.40;;;29.70;47.50;;;;;;5075229;28;20376;-69
2023/06/18 09:52:07;;;;;;;9.15;6.28;;;29.70;47.30;;;;;;5075577;28;20036;-68
2023/06/18 09:54:43;;;;;;;10.30;7.40;;;29.80;47.30;;;;;;5075569;28;20048;-69
2023/06/18 09:57:12;;;;;;;9.25;5.90;;;29.90;47.10;;;;;;5075192;28;20086;-68
2023/06/18 09:59:38;;;;;;;8.40;5.95;;;29.90;47.50;;;;;;5075677;28;20016;-70
2023/06/18 10:02:06;;;;;;;7.85;5.82;;;29.80;47.40;;;;;;5075670;28;20064;-70
2023/06/18 10:04:33;;;;;;;6.85;4.93;;;29.80;47.40;;;;;;5075066;28;20020;-69
2023/06/18 10:07:03;;;;;;;6.32;4.60;;;29.90;47.50;;;;;;5074998;28;20056;-68
2023/06/18 10:09:37;;;;;;;7.00;5.05;;;30.00;47.50;;;;;;5074916;28;20024;-69
2023/06/18 10:12:05;;;;;;;11.13;7.75;;;30.10;47.50;;;;;;5075305;28;20028;-68
2023/06/18 10:14:32;;;;;;;11.43;7.95;;;30.30;47.40;;;;;;5075032;28;20052;-71
2023/06/18 10:17:07;;;;;;;13.40;8.15;;;30.30;46.90;;;;;;5075349;28;20033;-70
2023/06/18 10:20:15;;;;;;;10.23;7.57;;;30.20;46.80;;;;;;5075317;28;20090;-68
2023/06/18 10:22:51;;;;;;;10.23;7.72;;;30.00;46.60;;;;;;4996826;28;20129;-73
2023/06/18 10:25:18;;;;;;;10.82;7.45;;;30.00;47.00;;;;;;5033658;28;20029;-69
2023/06/18 10:27:45;;;;;;;9.35;6.90;;;30.00;46.90;;;;;;5033446;28;20522;-69
2023/06/18 10:30:11;;;;;;;8.38;6.10;;;30.10;46.90;;;;;;5033243;28;20025;-69
2023/06/18 10:32:39;;;;;;;9.45;6.28;;;30.10;46.50;;;;;;5033736;28;20069;-70
2023/06/18 10:35:08;;;;;;;7.88;5.82;;;30.10;46.40;;;;;;5033132;28;20025;-73
2023/06/18 10:37:35;;;;;;;8.55;6.30;;;30.00;46.40;;;;;;5032967;28;20021;-74
2023/06/18 10:40:07;;;;;;;8.10;5.80;;;29.90;46.30;;;;;;5033211;28;20074;-74
2023/06/18 10:42:34;;;;;;;7.13;5.50;;;29.90;46.20;;;;;;5033003;28;20025;-70
2023/06/18 10:45:14;;;;;;;7.95;6.18;;;30.00;46.40;;;;;;5033029;28;20025;-69
2023/06/18 10:47:41;;;;;;;6.60;5.20;;;30.00;46.40;;;;;;5032981;28;20125;-68
2023/06/18 10:50:07;;;;;;;8.27;5.30;;;30.00;46.70;;;;;;5033414;28;20047;-69
2023/06/18 10:52:36;;;;;;;7.45;5.05;;;30.10;47.10;;;;;;5036966;28;20132;-69
2023/06/18 10:55:20;;;;;;;7.57;5.45;;;30.20;47.40;;;;;;5037293;28;20029;-69
2023/06/18 10:57:56;;;;;;;9.18;6.20;;;30.40;47.50;;;;;;5037204;28;20053;-68
2023/06/18 11:00:29;;;;;;;7.15;5.30;;;30.50;47.10;;;;;;5104963;28;20322;-75
2023/06/18 11:03:05;;;;;;;7.28;5.30;;;30.40;46.90;;;;;;5103727;28;20036;-69
2023/06/18 11:05:32;;;;;;;8.43;5.40;;;30.50;46.70;;;;;;5106584;28;20068;-69
2023/06/18 11:08:02;;;;;;;7.70;5.60;;;30.50;46.60;;;;;;5099128;28;20036;-74
2023/06/18 11:10:40;;;;;;;10.07;5.78;;;30.50;46.50;;;;;;5098741;28;20059;-69
2023/06/18 11:13:08;;;;;;;7.70;5.40;;;30.50;46.20;;;;;;5098717;28;20436;-74
2023/06/18 11:15:35;;;;;;;6.78;4.80;;;30.60;46.10;;;;;;5098856;28;20099;-69
2023/06/18 11:18:02;;;;;;;7.38;5.20;;;30.60;46.10;;;;;;5098906;28;20497;-70
2023/06/18 11:20:37;;;;;;;6.15;4.88;;;30.60;46.10;;;;;;5098551;28;20039;-70
2023/06/18 11:23:04;;;;;;;7.32;4.90;;;30.70;46.10;;;;;;5094260;28;20049;-74
2023/06/18 11:25:30;;;;;;;8.30;5.30;;;30.80;46.00;;;;;;5078020;28;20020;-69
2023/06/18 11:28:02;;;;;;;8.00;5.82;;;30.80;45.70;;;;;;5078059;28;20086;-75
2023/06/18 11:30:36;;;;;;;9.53;6.23;;;30.70;45.60;;;;;;5060415;28;20028;-74
2023/06/18 11:33:02;;;;;;;6.70;5.18;;;30.60;45.70;;;;;;5078349;28;20430;-74
2023/06/18 11:35:32;;;;;;;7.45;5.70;;;30.50;45.80;;;;;;5077803;28;20099;-74
2023/06/18 11:37:58;;;;;;;7.88;6.07;;;30.50;46.10;;;;;;5060321;28;20024;-74
2023/06/18 11:40:25;;;;;;;7.25;5.03;;;30.50;46.10;;;;;;5060225;28;20024;-74
2023/06/18 11:42:52;;;;;;;9.02;6.03;;;30.50;46.10;;;;;;5078095;28;20029;-70
2023/06/18 11:45:20;;;;;;;7.05;5.13;;;30.60;46.10;;;;;;5077797;28;20058;-69
2023/06/18 11:47:49;;;;;;;8.88;6.05;;;30.50;46.00;;;;;;5077958;28;20055;-69
2023/06/18 11:50:19;;;;;;;8.15;6.40;;;30.50;46.20;;;;;;5060108;28;20458;-74
2023/06/18 11:52:46;;;;;;;10.48;6.13;;;30.50;46.60;;;;;;5077710;28;20028;-75
2023/06/18 11:55:12;;;;;;;8.05;5.80;;;30.50;46.60;;;;;;5078165;28;20020;-69
2023/06/18 11:57:40;;;;;;;8.70;5.43;;;30.50;46.70;;;;;;5077526;28;20031;-70
2023/06/18 12:00:10;;;;;;;7.85;5.78;;;30.50;46.80;;;;;;5077478;28;20039;-70
2023/06/18 12:02:41;;;;;;;8.48;6.32;;;30.50;46.70;;;;;;5060260;28;20032;-69
2023/06/18 12:05:08;;;;;;;8.52;5.47;;;30.40;46.50;;;;;;5077711;28;20087;-70
2023/06/18 12:07:39;;;;;;;7.72;5.45;;;30.30;46.60;;;;;;5077295;28;20036;-74
2023/06/18 12:10:10;;;;;;;9.60;6.20;;;30.40;46.70;;;;;;5059473;28;20035;-72
2023/06/18 12:12:55;;;;;;;8.05;5.85;;;30.40;46.70;;;;;;5077500;28;20024;-69
2023/06/18 12:15:30;;;;;;;9.65;5.85;;;30.40;46.70;;;;;;5077171;28;20020;-73
2023/06/18 12:18:14;;;;;;;6.95;5.20;;;30.30;46.50;;;;;;5077703;28;20035;-74
2023/06/18 12:20:41;;;;;;;8.38;6.20;;;30.30;46.80;;;;;;5077267;28;20039;-73
2023/06/18 12:23:08;;;;;;;8.50;5.57;;;30.40;46.80;;;;;;5076657;28;20079;-73
2023/06/18 12:25:34;;;;;;;9.38;5.90;;;30.40;46.90;;;;;;5077220;28;20033;-71
2023/06/18 12:28:04;;;;;;;10.02;6.40;;;30.40;47.10;;;;;;5077511;28;20039;-72
2023/06/18 12:30:35;;;;;;;8.15;5.93;;;30.50;47.00;;;;;;5077071;28;20078;-71
2023/06/18 12:33:03;;;;;;;7.55;5.75;;;30.50;46.80;;;;;;5077302;28;20398;-76
2023/06/18 12:35:32;;;;;;;8.60;5.95;;;30.50;46.60;;;;;;5076872;28;20017;-71
2023/06/18 12:38:04;;;;;;;8.55;6.18;;;30.50;46.50;;;;;;5077065;28;20405;-72
2023/06/18 12:40:31;;;;;;;8.20;6.32;;;30.50;46.60;;;;;;5076850;28;20029;-71
2023/06/18 12:42:59;;;;;;;8.00;5.90;;;30.50;46.50;;;;;;5077039;28;20029;-69